This is the latest recevied weather packets stored in our database for station/object KA7EII-13. If no packets are shown the sender has not sent any weather packets the latest 10 day(s).
| Time | Temp. | Humidity | Pressure | Rain* | Wind** | Luminosity | Snow |
|---|---|---|---|---|---|---|---|
| 1777548655 | -1.11° C | 92% | 1111.3 hPa | 0 mm | - | 0 W/m² | - |
| 1777548351 | -1.11° C | 92% | 1111.2 hPa | 0 mm | - | 0 W/m² | - |
| 1777548049 | -1.11° C | 92% | 1111.4 hPa | 0 mm | - | 0 W/m² | - |
| 1777547745 | -1.11° C | 91% | 1111.3 hPa | 0 mm | - | 0 W/m² | - |
| 1777547441 | -1.11° C | 91% | 1111.6 hPa | 0 mm | - | 0 W/m² | - |
| 1777547139 | -1.11° C | 90% | 1111.5 hPa | 0 mm | - | 0 W/m² | - |
| 1777546836 | -0.56° C | 89% | 1111.4 hPa | 0 mm | - | 0 W/m² | - |
| 1777546532 | -0.56° C | 89% | 1111.3 hPa | 0 mm | - | 0 W/m² | - |
| 1777546229 | 0° C | 88% | 1111.3 hPa | 0 mm | - | 0 W/m² | - |
| 1777545927 | 0° C | 88% | 1111.5 hPa | 0 mm | - | 0 W/m² | - |
| 1777545623 | 0° C | 87% | 1111.4 hPa | 0 mm | - | 0 W/m² | - |
| 1777545319 | 0.56° C | 85% | 1111.3 hPa | 0 mm | - | 0 W/m² | - |
| 1777545017 | 1.67° C | 82% | 1111.3 hPa | 0 mm | - | 0 W/m² | - |
| 1777544714 | 2.22° C | 81% | 1111.3 hPa | 0 mm | - | 0 W/m² | - |
| 1777544409 | 2.22° C | 81% | 1111 hPa | 0 mm | - | 0 W/m² | - |
| 1777544105 | 2.22° C | 80% | 1111.2 hPa | 0 mm | - | 0 W/m² | - |
| 1777543803 | 2.22° C | 80% | 1111.3 hPa | 0 mm | - | 0 W/m² | - |
| 1777543499 | 2.22° C | 81% | 1111 hPa | 0 mm | - | 0 W/m² | - |
| 1777543195 | 2.22° C | 81% | 1111 hPa | 0 mm | - | 0 W/m² | - |
| 1777542891 | 1.67° C | 84% | 1111 hPa | 0 mm | - | 0 W/m² | - |
| 1777542588 | 1.67° C | 84% | 1111.3 hPa | 0 mm | - | 0 W/m² | - |
| 1777542284 | 1.67° C | 84% | 1110.8 hPa | 0 mm | - | 0 W/m² | - |
| 1777541982 | 1.67° C | 84% | 1111 hPa | 0 mm | - | 0 W/m² | - |
| 1777541679 | 1.67° C | 85% | 1111 hPa | 0 mm | - | 0 W/m² | - |
| 1777541375 | 1.67° C | 85% | 1111 hPa | 0 mm | - | 0 W/m² | - |
* Rain latest hour (hover to see other rain measurements)
** Current wind speed in m/s (hover to see current wind gust speed)